Terminal Aerodrome Forecast
Issued by NWS Greer, SC

Home | Current Version | Previous Version | Text Only | Print | Product List | Glossary On
Versions: 1 2 3 4 5 6 7 8 9 10 11 12 13 14
000
FTUS42 KGSP 231700
TAFGSP
TAF
KGSP 231722Z 2318/2418 35008KT P6SM SKC
     FM240500 03005KT P6SM SKC
     FM241600 12006KT P6SM FEW250=

USA.gov is the U.S. government's official web portal to all federal, state and local government web resources and services.